createdAt,value
2017-12-11T00:00:36.481Z,5.00
2017-12-11T00:03:04.059Z,5.02
2017-12-11T00:05:31.640Z,5.00
2017-12-11T00:07:59.294Z,4.99
2017-12-11T00:10:26.870Z,4.98
2017-12-11T00:12:54.501Z,4.98
2017-12-11T00:15:22.082Z,4.95
2017-12-11T00:17:49.693Z,4.96
2017-12-11T00:20:17.291Z,4.97
2017-12-11T00:22:47.762Z,4.95
2017-12-11T00:25:15.346Z,4.95
2017-12-11T00:27:42.969Z,4.96
2017-12-11T00:30:10.551Z,4.94
2017-12-11T00:32:38.162Z,4.94
2017-12-11T00:35:05.742Z,4.93
2017-12-11T00:37:33.370Z,4.90
2017-12-11T00:40:00.958Z,4.90
2017-12-11T00:42:28.599Z,4.86
2017-12-11T00:44:56.174Z,4.80
2017-12-11T00:47:23.774Z,4.81
2017-12-11T00:49:51.367Z,4.81
2017-12-11T00:52:18.996Z,4.77
2017-12-11T00:54:46.609Z,4.75
2017-12-11T00:57:14.177Z,4.72
2017-12-11T00:59:41.794Z,4.72
2017-12-11T01:02:09.395Z,4.68
2017-12-11T01:04:37.066Z,4.66
2017-12-11T01:07:04.667Z,4.62
2017-12-11T01:09:32.263Z,4.60
2017-12-11T01:11:59.842Z,4.61
2017-12-11T01:14:27.671Z,4.63
2017-12-11T01:16:55.258Z,4.62
2017-12-11T01:19:22.963Z,4.62
2017-12-11T01:21:50.563Z,4.63
2017-12-11T01:24:18.199Z,4.61
2017-12-11T01:26:45.779Z,4.62
2017-12-11T01:29:13.378Z,4.66
2017-12-11T01:31:40.963Z,4.68
2017-12-11T01:34:08.587Z,4.70
2017-12-11T01:36:36.183Z,4.70
2017-12-11T01:39:03.795Z,4.70
2017-12-11T01:41:31.366Z,4.69
2017-12-11T01:43:58.955Z,4.65
2017-12-11T01:46:26.565Z,4.63
2017-12-11T01:48:54.141Z,4.61
2017-12-11T01:51:21.749Z,4.64
2017-12-11T01:53:49.334Z,4.60
2017-12-11T01:56:16.953Z,4.61
2017-12-11T01:58:44.538Z,4.63
2017-12-11T02:01:12.158Z,4.60
2017-12-11T02:03:39.758Z,4.58
2017-12-11T02:06:07.387Z,4.59
2017-12-11T02:08:34.967Z,4.57
2017-12-11T02:11:02.611Z,4.57
2017-12-11T02:13:30.186Z,4.56
2017-12-11T02:15:57.823Z,4.55
2017-12-11T02:18:25.398Z,4.55
2017-12-11T02:20:53.023Z,4.56
2017-12-11T02:23:20.596Z,4.57
2017-12-11T02:25:48.259Z,4.56
2017-12-11T02:28:15.835Z,4.56
2017-12-11T02:30:43.458Z,4.58
2017-12-11T02:33:11.058Z,4.58
2017-12-11T02:35:38.676Z,4.61
2017-12-11T02:38:06.342Z,4.57
2017-12-11T02:40:33.968Z,4.55
2017-12-11T02:43:01.555Z,4.54
2017-12-11T02:45:29.215Z,4.51
2017-12-11T02:47:56.830Z,4.47
2017-12-11T02:50:24.432Z,4.43
2017-12-11T02:52:52.023Z,4.39
2017-12-11T02:55:19.629Z,4.38
2017-12-11T02:57:47.215Z,4.40
2017-12-11T03:00:14.860Z,4.42
2017-12-11T03:02:42.466Z,4.44
2017-12-11T03:05:10.066Z,4.46
2017-12-11T03:07:37.662Z,4.43
2017-12-11T03:10:05.275Z,4.43
2017-12-11T03:12:32.887Z,4.44
2017-12-11T03:15:00.655Z,4.47
2017-12-11T03:17:28.238Z,4.46
2017-12-11T03:19:55.857Z,4.46
2017-12-11T03:22:23.447Z,4.44
2017-12-11T03:24:51.139Z,4.44
2017-12-11T03:27:18.782Z,4.39
2017-12-11T03:29:46.410Z,4.40
2017-12-11T03:32:13.998Z,4.47
2017-12-11T03:34:41.641Z,4.53
2017-12-11T03:37:09.227Z,4.54
2017-12-11T03:39:36.974Z,4.54
2017-12-11T03:42:04.551Z,4.56
2017-12-11T03:44:32.156Z,4.56
2017-12-11T03:46:59.735Z,4.52
2017-12-11T03:49:27.419Z,4.48
2017-12-11T03:51:55.009Z,4.36
2017-12-11T03:54:22.626Z,4.33
2017-12-11T03:56:50.207Z,4.26
2017-12-11T03:59:17.833Z,4.26
2017-12-11T04:01:45.414Z,4.26
2017-12-11T04:04:13.042Z,4.25
2017-12-11T04:06:40.594Z,4.28
2017-12-11T04:09:08.222Z,4.23
2017-12-11T04:11:35.830Z,4.17
2017-12-11T04:14:03.428Z,4.10
2017-12-11T04:16:31.025Z,3.98
2017-12-11T04:18:58.609Z,3.81
2017-12-11T04:21:26.223Z,3.61
2017-12-11T04:23:53.883Z,3.46
2017-12-11T04:26:21.502Z,3.27
2017-12-11T04:28:49.138Z,3.11
2017-12-11T04:31:16.742Z,3.04
2017-12-11T04:33:44.398Z,3.13
2017-12-11T04:36:12.033Z,3.29
2017-12-11T04:38:39.721Z,3.41
2017-12-11T04:41:07.442Z,3.50
2017-12-11T04:43:35.038Z,3.61
2017-12-11T04:46:02.650Z,3.71
2017-12-11T04:48:30.266Z,3.78
2017-12-11T04:50:57.888Z,3.84
2017-12-11T04:53:25.506Z,3.91
2017-12-11T04:55:53.178Z,3.95
2017-12-11T04:58:20.820Z,3.94
2017-12-11T05:00:48.399Z,3.91
2017-12-11T05:03:15.971Z,3.79
2017-12-11T05:05:43.580Z,3.65
2017-12-11T05:08:11.126Z,3.65
2017-12-11T05:10:38.750Z,3.66
2017-12-11T05:13:06.385Z,3.68
2017-12-11T05:15:33.976Z,3.65
2017-12-11T05:18:01.611Z,3.67
2017-12-11T05:20:29.192Z,3.70
2017-12-11T05:22:56.781Z,3.72
2017-12-11T05:25:24.410Z,3.71
2017-12-11T05:27:52.005Z,3.75
2017-12-11T05:30:19.621Z,3.80
2017-12-11T05:32:47.198Z,3.81
2017-12-11T05:35:14.894Z,3.87
2017-12-11T05:37:42.482Z,3.90
2017-12-11T05:40:10.207Z,3.89
2017-12-11T05:42:37.849Z,3.88
2017-12-11T05:45:05.489Z,3.71
2017-12-11T05:47:33.077Z,3.62
2017-12-11T05:50:00.702Z,3.59
2017-12-11T05:52:28.330Z,3.59
2017-12-11T05:54:55.949Z,3.71
2017-12-11T05:57:23.554Z,3.81
2017-12-11T05:59:51.192Z,3.86
2017-12-11T06:02:18.769Z,3.85
2017-12-11T06:04:46.400Z,3.85
2017-12-11T06:07:14.090Z,3.92
2017-12-11T06:09:41.775Z,3.97
2017-12-11T06:12:09.366Z,3.99
2017-12-11T06:14:37.095Z,4.04
2017-12-11T06:17:04.738Z,4.07
2017-12-11T06:19:32.389Z,4.08
2017-12-11T06:21:59.971Z,4.09
2017-12-11T06:24:27.549Z,4.10
2017-12-11T06:26:55.165Z,4.10
2017-12-11T06:29:22.780Z,4.13
2017-12-11T06:31:50.370Z,4.15
2017-12-11T06:34:18.003Z,4.18
2017-12-11T06:36:45.641Z,4.18
2017-12-11T06:39:13.273Z,4.10
2017-12-11T06:41:41.011Z,4.09
2017-12-11T06:44:08.639Z,4.07
2017-12-11T06:46:36.237Z,3.98
2017-12-11T06:49:03.826Z,3.95
2017-12-11T06:51:31.555Z,3.86
2017-12-11T06:53:59.162Z,3.71
2017-12-11T06:56:26.762Z,3.68
2017-12-11T06:58:54.394Z,3.71
2017-12-11T07:01:22.021Z,3.67
2017-12-11T07:03:49.613Z,3.65
2017-12-11T07:06:17.306Z,3.72
2017-12-11T07:08:44.930Z,3.78
2017-12-11T07:11:12.515Z,3.81
2017-12-11T07:13:40.101Z,3.83
2017-12-11T07:16:07.729Z,3.82
2017-12-11T07:18:35.310Z,3.82
2017-12-11T07:21:02.999Z,3.89
2017-12-11T07:23:30.720Z,3.84
2017-12-11T07:25:58.344Z,3.84
2017-12-11T07:28:25.931Z,3.84
2017-12-11T07:30:53.640Z,3.83
2017-12-11T07:33:21.246Z,3.89
2017-12-11T07:35:48.871Z,3.90
2017-12-11T07:38:16.462Z,3.96
2017-12-11T07:40:44.068Z,4.46
2017-12-11T07:43:11.654Z,4.43
2017-12-11T07:45:39.310Z,4.37
2017-12-11T07:48:06.926Z,4.31
2017-12-11T07:50:34.485Z,4.30
2017-12-11T07:53:02.116Z,4.29
2017-12-11T07:55:29.711Z,4.25
2017-12-11T07:57:57.674Z,4.23
2017-12-11T08:00:25.986Z,4.21
2017-12-11T08:02:53.643Z,4.23
2017-12-11T08:05:21.258Z,4.23
2017-12-11T08:07:48.869Z,4.22
2017-12-11T08:10:16.474Z,4.20
2017-12-11T08:12:44.174Z,4.02
2017-12-11T08:15:11.773Z,4.04
2017-12-11T08:17:39.431Z,4.07
2017-12-11T08:20:07.002Z,4.09
2017-12-11T08:22:34.619Z,4.01
2017-12-11T08:25:02.198Z,4.00
2017-12-11T08:27:29.817Z,4.02
2017-12-11T08:29:57.403Z,4.04
2017-12-11T08:32:25.004Z,4.02
2017-12-11T08:34:52.636Z,4.01
2017-12-11T08:37:20.226Z,4.02
2017-12-11T08:39:47.839Z,3.92
2017-12-11T08:42:15.546Z,3.90
2017-12-11T08:44:43.154Z,3.89
2017-12-11T08:47:10.737Z,3.83
2017-12-11T08:49:38.367Z,3.83
2017-12-11T08:52:05.954Z,3.88
2017-12-11T08:54:33.582Z,3.94
2017-12-11T08:57:01.194Z,3.99
2017-12-11T08:59:28.831Z,4.04
2017-12-11T09:01:56.442Z,3.96
2017-12-11T09:04:24.061Z,3.92
2017-12-11T09:06:51.674Z,3.88
2017-12-11T09:09:19.295Z,3.87
2017-12-11T09:11:47.070Z,3.90
2017-12-11T09:14:14.666Z,3.93
2017-12-11T09:16:42.412Z,3.90
2017-12-11T09:19:10.035Z,3.95
2017-12-11T09:21:37.690Z,3.95
2017-12-11T09:24:05.310Z,3.93
2017-12-11T09:26:32.999Z,3.96
2017-12-11T09:29:00.638Z,3.96
2017-12-11T09:31:28.230Z,3.95
2017-12-11T09:33:55.894Z,3.97
2017-12-11T09:36:23.498Z,4.00
2017-12-11T09:38:51.174Z,4.05
2017-12-11T09:41:18.778Z,4.05
2017-12-11T09:43:46.402Z,4.06
2017-12-11T09:46:14.028Z,4.06
2017-12-11T09:48:41.750Z,4.08
2017-12-11T09:51:09.406Z,4.14
2017-12-11T09:53:37.030Z,4.16
2017-12-11T09:56:04.628Z,4.16
2017-12-11T09:58:32.307Z,4.24
2017-12-11T10:00:59.882Z,4.29
2017-12-11T10:03:27.611Z,4.38
2017-12-11T10:05:55.210Z,4.41
2017-12-11T10:08:22.807Z,4.41
2017-12-11T10:10:50.502Z,4.46
2017-12-11T10:13:18.158Z,4.47
2017-12-11T10:15:45.744Z,4.50
2017-12-11T10:18:13.340Z,4.50
2017-12-11T10:20:40.950Z,4.55
2017-12-11T10:23:08.546Z,4.55
2017-12-11T10:25:36.162Z,4.53
2017-12-11T10:28:03.749Z,4.52
2017-12-11T10:30:31.373Z,4.54
2017-12-11T10:32:58.957Z,4.55
2017-12-11T10:35:26.591Z,4.58
2017-12-11T10:37:54.215Z,4.62
2017-12-11T10:40:21.818Z,4.60
2017-12-11T10:42:49.406Z,4.63
2017-12-11T10:45:17.038Z,4.60
2017-12-11T10:47:44.674Z,4.67
2017-12-11T10:50:12.287Z,4.66
2017-12-11T10:52:39.898Z,4.67
2017-12-11T10:55:07.506Z,4.66
2017-12-11T10:57:35.098Z,4.69
2017-12-11T11:00:02.817Z,4.74
2017-12-11T11:02:30.407Z,4.70
2017-12-11T11:04:58.012Z,4.62
2017-12-11T11:07:25.601Z,4.56
2017-12-11T11:09:53.214Z,4.58
2017-12-11T11:12:20.787Z,4.60
2017-12-11T11:14:48.405Z,4.57
2017-12-11T11:17:15.994Z,4.57
2017-12-11T11:19:43.620Z,4.52
2017-12-11T11:22:11.221Z,4.58
2017-12-11T11:24:38.863Z,4.65
2017-12-11T11:27:06.447Z,4.68
2017-12-11T11:29:34.058Z,4.70
2017-12-11T11:32:01.642Z,4.77
2017-12-11T11:34:29.304Z,4.81
2017-12-11T11:36:56.894Z,4.83
2017-12-11T11:39:24.518Z,4.91
2017-12-11T11:41:52.106Z,5.02
2017-12-11T11:44:19.734Z,5.10
2017-12-11T11:46:47.326Z,5.10
2017-12-11T11:49:15.050Z,5.09
2017-12-11T11:51:42.679Z,5.11
2017-12-11T11:54:10.282Z,5.15
2017-12-11T11:56:37.899Z,5.15
2017-12-11T11:59:05.555Z,5.20
2017-12-11T12:01:33.149Z,5.29
2017-12-11T12:04:00.767Z,5.30
2017-12-11T12:06:28.354Z,5.30
2017-12-11T12:08:55.986Z,5.31
2017-12-11T12:11:23.595Z,5.32
2017-12-11T12:13:51.243Z,5.36
2017-12-11T12:16:18.898Z,5.39
2017-12-11T12:18:46.494Z,5.36
2017-12-11T12:21:14.166Z,5.35
2017-12-11T12:23:41.823Z,5.36
2017-12-11T12:26:09.405Z,5.17
2017-12-11T12:28:36.994Z,5.04
2017-12-11T12:31:04.624Z,5.00
2017-12-11T12:33:32.203Z,4.99
2017-12-11T12:35:59.824Z,5.04
2017-12-11T12:38:27.368Z,5.09
2017-12-11T12:40:54.987Z,5.16
2017-12-11T12:43:22.570Z,5.22
2017-12-11T12:45:50.194Z,5.33
2017-12-11T12:48:17.794Z,5.42
2017-12-11T12:50:45.422Z,5.44
2017-12-11T12:53:13.012Z,5.47
2017-12-11T12:55:40.636Z,5.51
2017-12-11T12:58:08.227Z,5.57
2017-12-11T13:00:35.857Z,5.60
2017-12-11T13:03:03.423Z,5.65
2017-12-11T13:05:31.143Z,5.70
2017-12-11T13:07:58.745Z,5.74
2017-12-11T13:10:26.359Z,5.80
2017-12-11T13:12:53.943Z,5.80
2017-12-11T13:15:21.543Z,5.81
2017-12-11T13:17:49.142Z,5.84
2017-12-11T13:20:16.759Z,5.90
2017-12-11T13:22:44.356Z,5.91
2017-12-11T13:25:11.964Z,5.96
2017-12-11T13:27:39.596Z,5.98
2017-12-11T13:30:07.183Z,6.06
2017-12-11T13:32:34.811Z,6.09
2017-12-11T13:35:02.409Z,6.10
2017-12-11T13:37:30.026Z,6.11
2017-12-11T13:39:57.624Z,6.13
2017-12-11T13:42:25.309Z,6.15
2017-12-11T13:44:52.838Z,6.17
2017-12-11T13:47:20.470Z,6.19
2017-12-11T13:49:48.107Z,6.23
2017-12-11T13:52:15.751Z,6.24
2017-12-11T13:54:43.387Z,6.25
2017-12-11T13:57:11.004Z,6.29
2017-12-11T13:59:38.637Z,6.35
2017-12-11T14:02:06.263Z,6.36
2017-12-11T14:04:33.831Z,6.41
2017-12-11T14:07:01.490Z,6.42
2017-12-11T14:09:29.098Z,6.39
2017-12-11T14:11:56.734Z,6.40
2017-12-11T14:14:24.335Z,6.39
2017-12-11T14:16:51.965Z,6.48
2017-12-11T14:19:19.555Z,6.52
2017-12-11T14:21:47.262Z,6.52
2017-12-11T14:24:14.867Z,6.58
2017-12-11T14:26:42.492Z,6.59
2017-12-11T14:29:10.082Z,6.67
2017-12-11T14:31:37.738Z,6.74
2017-12-11T14:34:05.355Z,6.74
2017-12-11T14:36:33.004Z,6.92
2017-12-11T14:39:00.590Z,7.10
2017-12-11T14:41:28.214Z,7.43
2017-12-11T14:43:55.804Z,7.66
2017-12-11T14:46:23.410Z,7.81
2017-12-11T14:48:51.004Z,7.87
2017-12-11T14:51:18.636Z,7.93
2017-12-11T14:53:46.216Z,7.99
2017-12-11T14:56:13.835Z,8.08
2017-12-11T14:58:41.426Z,8.12
2017-12-11T15:01:09.058Z,8.16
2017-12-11T15:03:36.661Z,8.33
2017-12-11T15:06:04.287Z,8.38
2017-12-11T15:08:31.913Z,8.54
2017-12-11T15:10:59.526Z,8.55
2017-12-11T15:13:27.109Z,8.51
2017-12-11T15:15:54.730Z,8.44
2017-12-11T15:18:22.321Z,8.36
2017-12-11T15:20:49.993Z,8.28
2017-12-11T15:23:17.582Z,8.20
2017-12-11T15:25:45.218Z,8.13
2017-12-11T15:28:12.811Z,8.10
2017-12-11T15:30:40.413Z,8.14
2017-12-11T15:33:08.009Z,8.15
2017-12-11T15:35:35.600Z,8.11
2017-12-11T15:38:03.241Z,8.08
2017-12-11T15:40:30.828Z,8.04
2017-12-11T15:42:58.453Z,8.02
2017-12-11T15:45:26.027Z,8.03
2017-12-11T15:47:53.654Z,7.98
2017-12-11T15:50:21.226Z,7.94
2017-12-11T15:52:48.904Z,7.92
2017-12-11T15:55:16.554Z,7.92
2017-12-11T15:57:44.131Z,8.00
2017-12-11T16:00:11.727Z,8.08
2017-12-11T16:02:39.360Z,8.15
2017-12-11T16:05:06.951Z,8.23
2017-12-11T16:07:34.563Z,8.26
2017-12-11T16:10:02.159Z,8.28
2017-12-11T16:12:29.771Z,8.30
2017-12-11T16:14:57.351Z,8.28
2017-12-11T16:17:24.978Z,8.22
2017-12-11T16:19:52.550Z,8.21
2017-12-11T16:22:20.178Z,8.16
2017-12-11T16:24:47.771Z,8.14
2017-12-11T16:27:15.399Z,8.20
2017-12-11T16:29:42.986Z,8.24
2017-12-11T16:32:10.617Z,8.25
2017-12-11T16:34:38.200Z,8.25
2017-12-11T16:37:05.788Z,8.25
2017-12-11T16:39:33.443Z,8.29
2017-12-11T16:42:01.041Z,8.30
2017-12-11T16:44:28.656Z,8.29
2017-12-11T16:46:56.247Z,8.27
2017-12-11T16:49:23.854Z,8.25
2017-12-11T16:51:51.442Z,8.26
2017-12-11T16:54:19.061Z,8.33
2017-12-11T16:56:46.683Z,8.33
2017-12-11T16:59:14.309Z,8.33
2017-12-11T17:01:41.931Z,8.34
2017-12-11T17:04:09.570Z,8.35
2017-12-11T17:06:37.203Z,8.36
2017-12-11T17:09:04.831Z,8.33
2017-12-11T17:11:32.425Z,8.29
2017-12-11T17:14:00.045Z,8.25
2017-12-11T17:16:27.618Z,8.22
2017-12-11T17:18:55.241Z,8.19
2017-12-11T17:21:22.885Z,8.18
2017-12-11T17:23:50.508Z,8.24
2017-12-11T17:26:18.094Z,8.27
2017-12-11T17:28:45.742Z,8.28
2017-12-11T17:31:13.343Z,8.29
2017-12-11T17:33:40.996Z,8.33
2017-12-11T17:36:08.633Z,8.45
2017-12-11T17:38:36.271Z,8.55
2017-12-11T17:41:03.870Z,8.58
2017-12-11T17:43:31.503Z,8.60
2017-12-11T17:45:59.140Z,8.58
2017-12-11T17:48:26.927Z,8.56
2017-12-11T17:50:54.544Z,8.53
2017-12-11T17:53:23.587Z,8.60
2017-12-11T17:55:51.243Z,8.56
2017-12-11T17:58:18.907Z,8.59
2017-12-11T18:00:46.575Z,8.57
2017-12-11T18:03:14.214Z,8.61
2017-12-11T18:05:41.883Z,8.61
2017-12-11T18:08:09.585Z,8.64
2017-12-11T18:10:37.278Z,8.66
2017-12-11T18:13:04.994Z,8.66
2017-12-11T18:15:32.759Z,8.67
2017-12-11T18:18:00.464Z,8.63
2017-12-11T18:20:28.096Z,8.62
2017-12-11T18:22:55.780Z,8.65
2017-12-11T18:25:23.507Z,8.73
2017-12-11T18:27:51.165Z,8.77
2017-12-11T18:30:18.893Z,8.81
2017-12-11T18:32:46.581Z,8.77
2017-12-11T18:35:15.758Z,8.77
2017-12-11T18:37:43.457Z,8.73
2017-12-11T18:40:11.102Z,8.70
2017-12-11T18:42:38.688Z,8.68
2017-12-11T18:45:06.267Z,8.67
2017-12-11T18:47:33.990Z,8.66
2017-12-11T18:50:01.579Z,8.68
2017-12-11T18:52:29.203Z,8.71
2017-12-11T18:54:56.808Z,8.71
2017-12-11T18:57:24.470Z,8.68
2017-12-11T18:59:52.107Z,8.63
2017-12-11T19:02:19.704Z,8.64
2017-12-11T19:04:47.385Z,8.73
2017-12-11T19:07:14.999Z,8.84
2017-12-11T19:09:42.618Z,8.87
2017-12-11T19:12:10.218Z,8.94
2017-12-11T19:14:37.839Z,8.96
2017-12-11T19:17:05.463Z,8.99
2017-12-11T19:19:33.058Z,9.00
2017-12-11T19:22:00.659Z,8.94
2017-12-11T19:24:28.321Z,8.87
2017-12-11T19:26:55.922Z,8.80
2017-12-11T19:29:23.791Z,8.73
2017-12-11T19:31:51.387Z,8.67
2017-12-11T19:34:19.051Z,8.66
2017-12-11T19:36:46.642Z,8.66
2017-12-11T19:39:14.522Z,8.71
2017-12-11T19:41:42.156Z,8.76
2017-12-11T19:44:09.766Z,8.99
2017-12-11T19:46:37.615Z,9.07
2017-12-11T19:49:05.544Z,9.06
2017-12-11T19:51:33.158Z,9.13
2017-12-11T19:54:01.059Z,9.14
2017-12-11T19:56:28.720Z,9.07
2017-12-11T19:58:56.604Z,9.01
2017-12-11T20:01:24.246Z,9.00
2017-12-11T20:03:51.865Z,8.99
2017-12-11T20:06:19.534Z,8.97
2017-12-11T20:08:47.403Z,8.97
2017-12-11T20:11:15.302Z,8.95
2017-12-11T20:13:42.990Z,8.93
2017-12-11T20:16:10.590Z,8.92
2017-12-11T20:18:38.244Z,8.91
2017-12-11T20:21:06.094Z,8.90
2017-12-11T20:23:33.777Z,8.88
2017-12-11T20:26:01.614Z,8.89
2017-12-11T20:28:29.303Z,8.88
2017-12-11T20:30:57.183Z,8.86
2017-12-11T20:33:24.887Z,8.81
2017-12-11T20:35:52.718Z,8.81
2017-12-11T20:38:20.442Z,8.76
2017-12-11T20:40:48.263Z,8.75
2017-12-11T20:43:16.156Z,8.75
2017-12-11T20:45:44.028Z,8.76
2017-12-11T20:48:11.913Z,8.80
2017-12-11T20:50:39.530Z,8.84
2017-12-11T20:53:07.160Z,8.83
2017-12-11T20:55:34.787Z,8.83
2017-12-11T20:58:02.409Z,8.84
2017-12-11T21:00:29.985Z,8.83
2017-12-11T21:02:57.652Z,8.78
2017-12-11T21:05:25.258Z,8.78
2017-12-11T21:07:52.850Z,8.75
2017-12-11T21:10:20.486Z,8.74
2017-12-11T21:12:48.176Z,8.71
2017-12-11T21:15:15.731Z,8.68
2017-12-11T21:17:43.357Z,8.66
2017-12-11T21:20:10.969Z,8.64
2017-12-11T21:22:38.610Z,8.67
2017-12-11T21:25:06.194Z,8.68
2017-12-11T21:27:33.835Z,8.65
2017-12-11T21:30:01.455Z,8.68
2017-12-11T21:32:29.112Z,8.66
2017-12-11T21:34:56.687Z,8.63
2017-12-11T21:37:24.250Z,8.60
2017-12-11T21:39:51.979Z,8.59
2017-12-11T21:42:19.643Z,8.55
2017-12-11T21:44:47.228Z,8.57
2017-12-11T21:47:14.838Z,8.58
2017-12-11T21:49:42.442Z,8.56
2017-12-11T21:52:10.081Z,8.58
2017-12-11T21:54:37.630Z,8.53
2017-12-11T21:57:05.276Z,8.45
2017-12-11T21:59:32.861Z,8.42
2017-12-11T22:02:00.497Z,8.38
2017-12-11T22:04:28.090Z,8.29
2017-12-11T22:06:55.682Z,8.24
2017-12-11T22:09:23.291Z,8.24
2017-12-11T22:11:50.935Z,8.20
2017-12-11T22:14:18.533Z,8.15
2017-12-11T22:16:46.133Z,8.06
2017-12-11T22:19:13.741Z,8.01
2017-12-11T22:21:41.347Z,7.98
2017-12-11T22:24:08.971Z,7.97
2017-12-11T22:26:36.693Z,7.95
2017-12-11T22:29:04.274Z,7.94
2017-12-11T22:31:31.896Z,7.89
2017-12-11T22:33:59.636Z,7.85
2017-12-11T22:36:27.243Z,7.88
2017-12-11T22:38:54.846Z,7.87
2017-12-11T22:41:22.469Z,7.88
2017-12-11T22:43:50.122Z,7.88
2017-12-11T22:46:17.743Z,7.88
2017-12-11T22:48:45.318Z,7.88
2017-12-11T22:51:12.919Z,7.84
2017-12-11T22:53:40.523Z,7.79
2017-12-11T22:56:08.166Z,7.74
2017-12-11T22:58:35.750Z,7.72
2017-12-11T23:01:03.365Z,7.71
2017-12-11T23:03:30.951Z,7.66
2017-12-11T23:05:58.554Z,7.57
2017-12-11T23:08:26.145Z,7.38
2017-12-11T23:10:53.754Z,7.13
2017-12-11T23:13:21.356Z,6.99
2017-12-11T23:15:48.983Z,6.84
2017-12-11T23:18:16.550Z,6.71
2017-12-11T23:20:44.235Z,6.56
2017-12-11T23:23:11.937Z,6.44
2017-12-11T23:25:39.554Z,6.24
2017-12-11T23:28:07.218Z,5.85
2017-12-11T23:30:34.871Z,5.56
2017-12-11T23:33:02.478Z,5.23
2017-12-11T23:35:30.088Z,5.00
2017-12-11T23:37:57.704Z,4.76
2017-12-11T23:40:25.293Z,4.57
2017-12-11T23:42:52.930Z,4.42
2017-12-11T23:45:20.525Z,4.24
2017-12-11T23:47:48.227Z,4.23
2017-12-11T23:50:15.814Z,4.16
2017-12-11T23:52:43.528Z,4.14
2017-12-11T23:55:11.218Z,4.01
2017-12-11T23:57:38.934Z,3.88
